sensor_id;sensor_type;location;lat;lon;timestamp;P1;durP1;ratioP1;P2;durP2;ratioP2
13443;SDS011;6794;59.218;18.218;2023-02-05T00:00:03;37.03;;;17.65;;
13443;SDS011;6794;59.218;18.218;2023-02-05T00:02:30;29.33;;;15.25;;
13443;SDS011;6794;59.218;18.218;2023-02-05T00:04:56;33.33;;;16.25;;
13443;SDS011;6794;59.218;18.218;2023-02-05T00:07:22;43.67;;;17.73;;
13443;SDS011;6794;59.218;18.218;2023-02-05T00:09:48;42.38;;;18.88;;
13443;SDS011;6794;59.218;18.218;2023-02-05T00:12:14;37.25;;;17.73;;
13443;SDS011;6794;59.218;18.218;2023-02-05T00:14:40;51.13;;;26.13;;
13443;SDS011;6794;59.218;18.218;2023-02-05T00:17:06;40.15;;;20.20;;
13443;SDS011;6794;59.218;18.218;2023-02-05T00:19:32;40.75;;;18.10;;
13443;SDS011;6794;59.218;18.218;2023-02-05T00:21:58;37.42;;;17.90;;
13443;SDS011;6794;59.218;18.218;2023-02-05T00:24:24;39.75;;;18.75;;
13443;SDS011;6794;59.218;18.218;2023-02-05T00:26:50;41.63;;;17.20;;
13443;SDS011;6794;59.218;18.218;2023-02-05T00:29:16;36.70;;;16.33;;
13443;SDS011;6794;59.218;18.218;2023-02-05T00:31:42;34.22;;;16.73;;
13443;SDS011;6794;59.218;18.218;2023-02-05T00:34:08;30.48;;;13.05;;
13443;SDS011;6794;59.218;18.218;2023-02-05T00:36:34;34.17;;;15.00;;
13443;SDS011;6794;59.218;18.218;2023-02-05T00:39:00;29.25;;;14.50;;
13443;SDS011;6794;59.218;18.218;2023-02-05T00:41:26;35.75;;;17.23;;
13443;SDS011;6794;59.218;18.218;2023-02-05T00:43:52;32.95;;;15.20;;
13443;SDS011;6794;59.218;18.218;2023-02-05T00:46:18;33.22;;;14.10;;
13443;SDS011;6794;59.218;18.218;2023-02-05T00:48:44;27.27;;;13.20;;
13443;SDS011;6794;59.218;18.218;2023-02-05T00:51:10;38.58;;;18.08;;
13443;SDS011;6794;59.218;18.218;2023-02-05T00:53:36;35.50;;;16.35;;
13443;SDS011;6794;59.218;18.218;2023-02-05T00:56:02;36.58;;;17.75;;
13443;SDS011;6794;59.218;18.218;2023-02-05T00:58:29;35.30;;;16.85;;
13443;SDS011;6794;59.218;18.218;2023-02-05T01:00:56;42.40;;;18.77;;
13443;SDS011;6794;59.218;18.218;2023-02-05T01:03:22;35.88;;;16.85;;
13443;SDS011;6794;59.218;18.218;2023-02-05T01:05:48;35.83;;;17.00;;
13443;SDS011;6794;59.218;18.218;2023-02-05T01:08:14;47.72;;;20.30;;
13443;SDS011;6794;59.218;18.218;2023-02-05T01:10:46;32.35;;;17.27;;
13443;SDS011;6794;59.218;18.218;2023-02-05T01:13:13;41.22;;;18.73;;
13443;SDS011;6794;59.218;18.218;2023-02-05T01:15:39;37.97;;;17.70;;
13443;SDS011;6794;59.218;18.218;2023-02-05T01:18:06;44.50;;;18.95;;
13443;SDS011;6794;59.218;18.218;2023-02-05T01:20:34;47.28;;;22.08;;
13443;SDS011;6794;59.218;18.218;2023-02-05T01:23:01;34.90;;;17.92;;
13443;SDS011;6794;59.218;18.218;2023-02-05T01:25:27;45.20;;;18.27;;
13443;SDS011;6794;59.218;18.218;2023-02-05T01:27:53;45.92;;;20.20;;
13443;SDS011;6794;59.218;18.218;2023-02-05T01:30:19;47.25;;;17.92;;
13443;SDS011;6794;59.218;18.218;2023-02-05T01:32:45;50.55;;;20.75;;
13443;SDS011;6794;59.218;18.218;2023-02-05T01:35:11;42.75;;;19.98;;
13443;SDS011;6794;59.218;18.218;2023-02-05T01:37:37;42.25;;;17.60;;
13443;SDS011;6794;59.218;18.218;2023-02-05T01:40:03;47.40;;;21.50;;
13443;SDS011;6794;59.218;18.218;2023-02-05T01:42:29;47.38;;;18.25;;
13443;SDS011;6794;59.218;18.218;2023-02-05T01:48:01;44.80;;;19.65;;
13443;SDS011;6794;59.218;18.218;2023-02-05T01:50:32;35.78;;;17.20;;
13443;SDS011;6794;59.218;18.218;2023-02-05T01:53:01;48.33;;;18.98;;
13443;SDS011;6794;59.218;18.218;2023-02-05T01:55:27;39.45;;;15.80;;
13443;SDS011;6794;59.218;18.218;2023-02-05T01:57:54;38.50;;;16.30;;
13443;SDS011;6794;59.218;18.218;2023-02-05T02:00:21;33.25;;;15.35;;
13443;SDS011;6794;59.218;18.218;2023-02-05T02:02:47;23.40;;;11.07;;
13443;SDS011;6794;59.218;18.218;2023-02-05T02:05:14;30.95;;;15.88;;
13443;SDS011;6794;59.218;18.218;2023-02-05T02:07:41;23.60;;;10.70;;
13443;SDS011;6794;59.218;18.218;2023-02-05T02:10:07;24.13;;;11.75;;
13443;SDS011;6794;59.218;18.218;2023-02-05T02:12:34;13.68;;;7.65;;
13443;SDS011;6794;59.218;18.218;2023-02-05T02:15:20;16.88;;;8.15;;
13443;SDS011;6794;59.218;18.218;2023-02-05T02:17:49;23.02;;;9.55;;
13443;SDS011;6794;59.218;18.218;2023-02-05T02:20:20;14.63;;;5.20;;
13443;SDS011;6794;59.218;18.218;2023-02-05T02:22:51;8.95;;;3.78;;
13443;SDS011;6794;59.218;18.218;2023-02-05T02:28:02;5.45;;;2.60;;
13443;SDS011;6794;59.218;18.218;2023-02-05T02:30:40;5.13;;;2.10;;
13443;SDS011;6794;59.218;18.218;2023-02-05T02:33:16;4.85;;;1.80;;
13443;SDS011;6794;59.218;18.218;2023-02-05T02:35:46;2.20;;;1.45;;
13443;SDS011;6794;59.218;18.218;2023-02-05T02:40:50;3.15;;;1.60;;
13443;SDS011;6794;59.218;18.218;2023-02-05T02:43:21;2.03;;;1.40;;
13443;SDS011;6794;59.218;18.218;2023-02-05T02:45:59;2.50;;;1.50;;
13443;SDS011;6794;59.218;18.218;2023-02-05T02:48:28;3.60;;;1.45;;
13443;SDS011;6794;59.218;18.218;2023-02-05T02:50:55;5.10;;;2.70;;
13443;SDS011;6794;59.218;18.218;2023-02-05T02:53:27;4.80;;;2.08;;
13443;SDS011;6794;59.218;18.218;2023-02-05T02:55:54;3.88;;;1.95;;
13443;SDS011;6794;59.218;18.218;2023-02-05T02:58:24;27.65;;;9.38;;
13443;SDS011;6794;59.218;18.218;2023-02-05T03:00:52;14.55;;;5.30;;
13443;SDS011;6794;59.218;18.218;2023-02-05T03:03:19;8.85;;;4.97;;
13443;SDS011;6794;59.218;18.218;2023-02-05T03:05:46;10.32;;;5.03;;
13443;SDS011;6794;59.218;18.218;2023-02-05T03:08:15;11.40;;;5.40;;
13443;SDS011;6794;59.218;18.218;2023-02-05T03:10:45;6.80;;;2.95;;
13443;SDS011;6794;59.218;18.218;2023-02-05T03:13:12;3.92;;;2.50;;
13443;SDS011;6794;59.218;18.218;2023-02-05T03:15:41;18.25;;;6.85;;
13443;SDS011;6794;59.218;18.218;2023-02-05T03:18:08;3.75;;;1.98;;
13443;SDS011;6794;59.218;18.218;2023-02-05T03:20:56;5.55;;;2.35;;
13443;SDS011;6794;59.218;18.218;2023-02-05T03:23:20;8.75;;;3.08;;
13443;SDS011;6794;59.218;18.218;2023-02-05T03:25:47;5.50;;;2.47;;
13443;SDS011;6794;59.218;18.218;2023-02-05T03:28:13;4.93;;;2.22;;
13443;SDS011;6794;59.218;18.218;2023-02-05T03:36:10;2.45;;;1.30;;
13443;SDS011;6794;59.218;18.218;2023-02-05T03:46:41;2.05;;;1.10;;
13443;SDS011;6794;59.218;18.218;2023-02-05T03:51:28;2.47;;;1.48;;
13443;SDS011;6794;59.218;18.218;2023-02-05T03:54:06;4.43;;;1.40;;
13443;SDS011;6794;59.218;18.218;2023-02-05T03:59:09;1.45;;;1.20;;
13443;SDS011;6794;59.218;18.218;2023-02-05T04:01:37;3.73;;;1.57;;
13443;SDS011;6794;59.218;18.218;2023-02-05T04:04:03;3.45;;;1.27;;
13443;SDS011;6794;59.218;18.218;2023-02-05T04:06:29;2.65;;;1.10;;
13443;SDS011;6794;59.218;18.218;2023-02-05T04:08:55;2.55;;;1.13;;
13443;SDS011;6794;59.218;18.218;2023-02-05T04:11:21;2.47;;;1.00;;
13443;SDS011;6794;59.218;18.218;2023-02-05T04:13:47;1.35;;;1.25;;
13443;SDS011;6794;59.218;18.218;2023-02-05T04:16:13;1.27;;;0.73;;
13443;SDS011;6794;59.218;18.218;2023-02-05T04:18:39;2.75;;;1.00;;
13443;SDS011;6794;59.218;18.218;2023-02-05T04:21:06;1.42;;;1.17;;
13443;SDS011;6794;59.218;18.218;2023-02-05T04:23:31;2.63;;;1.17;;
13443;SDS011;6794;59.218;18.218;2023-02-05T04:25:57;2.23;;;1.37;;
13443;SDS011;6794;59.218;18.218;2023-02-05T04:28:23;1.35;;;1.25;;
13443;SDS011;6794;59.218;18.218;2023-02-05T04:30:49;1.20;;;1.10;;
13443;SDS011;6794;59.218;18.218;2023-02-05T04:33:15;1.58;;;1.00;;
13443;SDS011;6794;59.218;18.218;2023-02-05T04:35:41;2.37;;;1.30;;
13443;SDS011;6794;59.218;18.218;2023-02-05T04:38:07;2.15;;;1.20;;
13443;SDS011;6794;59.218;18.218;2023-02-05T04:40:33;1.40;;;1.00;;
13443;SDS011;6794;59.218;18.218;2023-02-05T04:42:59;3.03;;;1.40;;
13443;SDS011;6794;59.218;18.218;2023-02-05T04:45:25;2.50;;;1.20;;
13443;SDS011;6794;59.218;18.218;2023-02-05T04:47:55;3.65;;;2.10;;
13443;SDS011;6794;59.218;18.218;2023-02-05T04:50:21;5.15;;;2.22;;
13443;SDS011;6794;59.218;18.218;2023-02-05T04:52:47;3.05;;;1.90;;
13443;SDS011;6794;59.218;18.218;2023-02-05T04:55:13;2.05;;;1.50;;
13443;SDS011;6794;59.218;18.218;2023-02-05T04:57:39;2.90;;;1.48;;
13443;SDS011;6794;59.218;18.218;2023-02-05T05:00:05;2.57;;;1.57;;
13443;SDS011;6794;59.218;18.218;2023-02-05T05:02:31;4.32;;;1.60;;
13443;SDS011;6794;59.218;18.218;2023-02-05T05:04:57;3.60;;;1.30;;
13443;SDS011;6794;59.218;18.218;2023-02-05T05:07:23;2.25;;;1.30;;
13443;SDS011;6794;59.218;18.218;2023-02-05T05:09:49;2.90;;;1.37;;
13443;SDS011;6794;59.218;18.218;2023-02-05T05:12:15;2.17;;;1.53;;
13443;SDS011;6794;59.218;18.218;2023-02-05T05:14:41;1.73;;;1.20;;
13443;SDS011;6794;59.218;18.218;2023-02-05T05:17:07;1.88;;;1.10;;
13443;SDS011;6794;59.218;18.218;2023-02-05T05:19:33;3.88;;;1.38;;
13443;SDS011;6794;59.218;18.218;2023-02-05T05:21:59;2.22;;;1.30;;
13443;SDS011;6794;59.218;18.218;2023-02-05T05:24:26;3.60;;;1.50;;
13443;SDS011;6794;59.218;18.218;2023-02-05T05:26:52;2.47;;;1.40;;
13443;SDS011;6794;59.218;18.218;2023-02-05T05:29:18;2.65;;;1.40;;
13443;SDS011;6794;59.218;18.218;2023-02-05T05:31:44;2.50;;;1.50;;
13443;SDS011;6794;59.218;18.218;2023-02-05T05:34:10;1.88;;;1.50;;
13443;SDS011;6794;59.218;18.218;2023-02-05T05:36:36;1.53;;;1.20;;
13443;SDS011;6794;59.218;18.218;2023-02-05T05:39:04;1.13;;;1.02;;
13443;SDS011;6794;59.218;18.218;2023-02-05T05:41:48;2.33;;;1.10;;
13443;SDS011;6794;59.218;18.218;2023-02-05T05:44:33;1.88;;;1.10;;
13443;SDS011;6794;59.218;18.218;2023-02-05T05:46:59;1.47;;;1.00;;
13443;SDS011;6794;59.218;18.218;2023-02-05T05:49:25;1.27;;;0.93;;
13443;SDS011;6794;59.218;18.218;2023-02-05T05:51:51;2.50;;;1.17;;
13443;SDS011;6794;59.218;18.218;2023-02-05T05:54:17;1.20;;;0.80;;
13443;SDS011;6794;59.218;18.218;2023-02-05T05:56:43;2.63;;;0.97;;
13443;SDS011;6794;59.218;18.218;2023-02-05T05:59:10;1.20;;;0.80;;
13443;SDS011;6794;59.218;18.218;2023-02-05T06:01:36;4.32;;;0.90;;
13443;SDS011;6794;59.218;18.218;2023-02-05T06:04:02;1.13;;;0.80;;
13443;SDS011;6794;59.218;18.218;2023-02-05T06:06:28;2.20;;;1.23;;
13443;SDS011;6794;59.218;18.218;2023-02-05T06:08:54;1.53;;;1.03;;
13443;SDS011;6794;59.218;18.218;2023-02-05T06:11:20;3.83;;;1.27;;
13443;SDS011;6794;59.218;18.218;2023-02-05T06:13:46;1.57;;;0.93;;
13443;SDS011;6794;59.218;18.218;2023-02-05T06:16:12;0.70;;;0.70;;
13443;SDS011;6794;59.218;18.218;2023-02-05T06:18:38;1.35;;;0.82;;
13443;SDS011;6794;59.218;18.218;2023-02-05T06:21:04;0.90;;;0.70;;
13443;SDS011;6794;59.218;18.218;2023-02-05T06:23:31;0.95;;;0.80;;
13443;SDS011;6794;59.218;18.218;2023-02-05T06:25:57;0.60;;;0.52;;
13443;SDS011;6794;59.218;18.218;2023-02-05T06:28:23;0.85;;;0.80;;
13443;SDS011;6794;59.218;18.218;2023-02-05T06:30:49;1.30;;;0.70;;
13443;SDS011;6794;59.218;18.218;2023-02-05T06:33:15;1.92;;;0.80;;
13443;SDS011;6794;59.218;18.218;2023-02-05T06:35:41;1.73;;;0.80;;
13443;SDS011;6794;59.218;18.218;2023-02-05T06:38:07;0.68;;;0.50;;
13443;SDS011;6794;59.218;18.218;2023-02-05T06:40:34;1.00;;;0.63;;
13443;SDS011;6794;59.218;18.218;2023-02-05T06:43:00;1.25;;;0.60;;
13443;SDS011;6794;59.218;18.218;2023-02-05T06:45:26;0.57;;;0.55;;
13443;SDS011;6794;59.218;18.218;2023-02-05T06:47:52;0.90;;;0.80;;
13443;SDS011;6794;59.218;18.218;2023-02-05T06:50:20;0.50;;;0.50;;
13443;SDS011;6794;59.218;18.218;2023-02-05T06:52:46;0.95;;;0.57;;
13443;SDS011;6794;59.218;18.218;2023-02-05T06:55:12;0.50;;;0.50;;
13443;SDS011;6794;59.218;18.218;2023-02-05T06:57:38;5.03;;;0.50;;
13443;SDS011;6794;59.218;18.218;2023-02-05T07:00:04;1.07;;;0.67;;
13443;SDS011;6794;59.218;18.218;2023-02-05T07:02:31;0.82;;;0.50;;
13443;SDS011;6794;59.218;18.218;2023-02-05T07:04:57;1.30;;;0.60;;
13443;SDS011;6794;59.218;18.218;2023-02-05T07:07:23;1.73;;;0.40;;
13443;SDS011;6794;59.218;18.218;2023-02-05T07:09:49;0.97;;;0.40;;
13443;SDS011;6794;59.218;18.218;2023-02-05T07:12:15;1.30;;;0.57;;
13443;SDS011;6794;59.218;18.218;2023-02-05T07:14:41;4.00;;;0.40;;
13443;SDS011;6794;59.218;18.218;2023-02-05T07:17:07;0.70;;;0.60;;
13443;SDS011;6794;59.218;18.218;2023-02-05T07:19:33;0.50;;;0.50;;
13443;SDS011;6794;59.218;18.218;2023-02-05T07:22:00;0.83;;;0.30;;
13443;SDS011;6794;59.218;18.218;2023-02-05T07:24:26;0.30;;;0.30;;
13443;SDS011;6794;59.218;18.218;2023-02-05T07:26:52;0.40;;;0.40;;
13443;SDS011;6794;59.218;18.218;2023-02-05T07:29:18;1.03;;;0.53;;
13443;SDS011;6794;59.218;18.218;2023-02-05T07:31:44;0.50;;;0.50;;
13443;SDS011;6794;59.218;18.218;2023-02-05T07:34:10;0.87;;;0.40;;
13443;SDS011;6794;59.218;18.218;2023-02-05T07:36:36;2.27;;;0.40;;
13443;SDS011;6794;59.218;18.218;2023-02-05T07:39:02;0.70;;;0.70;;
13443;SDS011;6794;59.218;18.218;2023-02-05T07:41:28;1.83;;;0.60;;
13443;SDS011;6794;59.218;18.218;2023-02-05T07:43:54;0.60;;;0.60;;
13443;SDS011;6794;59.218;18.218;2023-02-05T07:46:20;0.80;;;0.60;;
13443;SDS011;6794;59.218;18.218;2023-02-05T07:48:46;0.80;;;0.80;;
13443;SDS011;6794;59.218;18.218;2023-02-05T07:51:16;0.70;;;0.70;;
13443;SDS011;6794;59.218;18.218;2023-02-05T07:53:43;1.33;;;0.73;;
13443;SDS011;6794;59.218;18.218;2023-02-05T07:56:09;0.50;;;0.43;;
13443;SDS011;6794;59.218;18.218;2023-02-05T07:58:35;1.00;;;0.40;;
13443;SDS011;6794;59.218;18.218;2023-02-05T08:01:02;1.63;;;0.50;;
13443;SDS011;6794;59.218;18.218;2023-02-05T08:03:28;0.70;;;0.63;;
13443;SDS011;6794;59.218;18.218;2023-02-05T08:05:54;1.37;;;1.10;;
13443;SDS011;6794;59.218;18.218;2023-02-05T08:08:20;1.90;;;1.07;;
13443;SDS011;6794;59.218;18.218;2023-02-05T08:10:47;2.83;;;0.73;;
13443;SDS011;6794;59.218;18.218;2023-02-05T08:13:13;0.77;;;0.70;;
13443;SDS011;6794;59.218;18.218;2023-02-05T08:15:39;1.60;;;0.57;;
13443;SDS011;6794;59.218;18.218;2023-02-05T08:18:05;0.93;;;0.67;;
13443;SDS011;6794;59.218;18.218;2023-02-05T08:20:31;0.90;;;0.53;;
13443;SDS011;6794;59.218;18.218;2023-02-05T08:22:57;0.90;;;0.60;;
13443;SDS011;6794;59.218;18.218;2023-02-05T08:25:23;1.07;;;0.73;;
13443;SDS011;6794;59.218;18.218;2023-02-05T08:27:49;1.47;;;0.73;;
13443;SDS011;6794;59.218;18.218;2023-02-05T08:30:16;0.47;;;0.47;;
13443;SDS011;6794;59.218;18.218;2023-02-05T08:32:46;1.67;;;1.00;;
13443;SDS011;6794;59.218;18.218;2023-02-05T08:35:12;1.77;;;1.07;;
13443;SDS011;6794;59.218;18.218;2023-02-05T08:37:38;1.80;;;0.60;;
13443;SDS011;6794;59.218;18.218;2023-02-05T08:40:05;4.37;;;0.70;;
13443;SDS011;6794;59.218;18.218;2023-02-05T08:42:31;2.43;;;0.60;;
13443;SDS011;6794;59.218;18.218;2023-02-05T08:44:57;0.83;;;0.70;;
13443;SDS011;6794;59.218;18.218;2023-02-05T08:47:24;1.07;;;0.97;;
13443;SDS011;6794;59.218;18.218;2023-02-05T08:49:50;0.80;;;0.47;;
13443;SDS011;6794;59.218;18.218;2023-02-05T08:52:16;1.57;;;0.73;;
13443;SDS011;6794;59.218;18.218;2023-02-05T08:54:42;3.27;;;0.47;;
13443;SDS011;6794;59.218;18.218;2023-02-05T08:57:09;2.07;;;0.83;;
13443;SDS011;6794;59.218;18.218;2023-02-05T08:59:35;1.73;;;0.70;;
13443;SDS011;6794;59.218;18.218;2023-02-05T09:02:02;2.33;;;0.83;;
13443;SDS011;6794;59.218;18.218;2023-02-05T09:04:28;4.20;;;0.80;;
13443;SDS011;6794;59.218;18.218;2023-02-05T09:06:55;0.70;;;0.57;;
13443;SDS011;6794;59.218;18.218;2023-02-05T09:09:21;1.50;;;0.70;;
13443;SDS011;6794;59.218;18.218;2023-02-05T09:11:47;0.50;;;0.50;;
13443;SDS011;6794;59.218;18.218;2023-02-05T09:14:13;0.70;;;0.70;;
13443;SDS011;6794;59.218;18.218;2023-02-05T09:16:40;2.40;;;0.80;;
13443;SDS011;6794;59.218;18.218;2023-02-05T09:19:06;1.55;;;0.88;;
13443;SDS011;6794;59.218;18.218;2023-02-05T09:21:32;1.40;;;0.60;;
13443;SDS011;6794;59.218;18.218;2023-02-05T09:23:58;0.43;;;0.43;;
13443;SDS011;6794;59.218;18.218;2023-02-05T09:26:24;1.97;;;0.90;;
13443;SDS011;6794;59.218;18.218;2023-02-05T09:28:50;2.83;;;0.90;;
13443;SDS011;6794;59.218;18.218;2023-02-05T09:31:17;1.37;;;0.83;;
13443;SDS011;6794;59.218;18.218;2023-02-05T09:33:44;2.73;;;0.80;;
13443;SDS011;6794;59.218;18.218;2023-02-05T09:36:15;1.07;;;0.83;;
13443;SDS011;6794;59.218;18.218;2023-02-05T09:38:41;1.73;;;0.90;;
13443;SDS011;6794;59.218;18.218;2023-02-05T09:41:09;0.53;;;0.53;;
13443;SDS011;6794;59.218;18.218;2023-02-05T09:46:13;0.87;;;0.80;;
13443;SDS011;6794;59.218;18.218;2023-02-05T09:51:20;1.20;;;0.80;;
13443;SDS011;6794;59.218;18.218;2023-02-05T09:53:49;0.97;;;0.80;;
13443;SDS011;6794;59.218;18.218;2023-02-05T09:56:17;0.70;;;0.70;;
13443;SDS011;6794;59.218;18.218;2023-02-05T09:58:45;2.23;;;1.00;;
13443;SDS011;6794;59.218;18.218;2023-02-05T10:01:13;2.53;;;0.80;;
13443;SDS011;6794;59.218;18.218;2023-02-05T10:03:44;1.00;;;0.80;;
13443;SDS011;6794;59.218;18.218;2023-02-05T10:08:44;0.83;;;0.83;;
13443;SDS011;6794;59.218;18.218;2023-02-05T10:11:17;0.93;;;0.83;;
13443;SDS011;6794;59.218;18.218;2023-02-05T10:13:46;1.60;;;0.60;;
13443;SDS011;6794;59.218;18.218;2023-02-05T10:24:18;0.90;;;0.50;;
13443;SDS011;6794;59.218;18.218;2023-02-05T10:26:49;4.33;;;1.00;;
13443;SDS011;6794;59.218;18.218;2023-02-05T10:29:18;0.60;;;0.60;;
13443;SDS011;6794;59.218;18.218;2023-02-05T10:36:53;0.97;;;0.80;;
13443;SDS011;6794;59.218;18.218;2023-02-05T10:39:20;2.57;;;1.07;;
13443;SDS011;6794;59.218;18.218;2023-02-05T10:46:59;3.17;;;0.93;;
13443;SDS011;6794;59.218;18.218;2023-02-05T10:49:40;1.40;;;0.90;;
13443;SDS011;6794;59.218;18.218;2023-02-05T10:52:11;2.03;;;0.93;;
13443;SDS011;6794;59.218;18.218;2023-02-05T10:54:40;1.57;;;1.07;;
13443;SDS011;6794;59.218;18.218;2023-02-05T10:57:15;1.77;;;0.80;;
13443;SDS011;6794;59.218;18.218;2023-02-05T11:02:14;1.13;;;0.80;;
13443;SDS011;6794;59.218;18.218;2023-02-05T11:07:22;3.00;;;1.00;;
13443;SDS011;6794;59.218;18.218;2023-02-05T11:09:49;1.03;;;0.90;;
13443;SDS011;6794;59.218;18.218;2023-02-05T11:12:25;1.20;;;1.10;;
13443;SDS011;6794;59.218;18.218;2023-02-05T11:14:59;1.33;;;0.87;;
13443;SDS011;6794;59.218;18.218;2023-02-05T11:19:57;1.40;;;0.77;;
13443;SDS011;6794;59.218;18.218;2023-02-05T11:25:03;1.37;;;0.97;;
13443;SDS011;6794;59.218;18.218;2023-02-05T11:27:30;1.07;;;0.90;;
13443;SDS011;6794;59.218;18.218;2023-02-05T11:29:57;0.87;;;0.80;;
13443;SDS011;6794;59.218;18.218;2023-02-05T11:32:34;1.40;;;1.00;;
13443;SDS011;6794;59.218;18.218;2023-02-05T11:35:08;2.10;;;1.20;;
13443;SDS011;6794;59.218;18.218;2023-02-05T11:37:37;2.00;;;1.10;;
13443;SDS011;6794;59.218;18.218;2023-02-05T11:40:04;1.40;;;0.90;;
13443;SDS011;6794;59.218;18.218;2023-02-05T11:42:30;1.60;;;1.07;;
13443;SDS011;6794;59.218;18.218;2023-02-05T11:44:57;3.10;;;1.23;;
13443;SDS011;6794;59.218;18.218;2023-02-05T11:47:26;1.00;;;0.60;;
13443;SDS011;6794;59.218;18.218;2023-02-05T11:49:53;1.63;;;1.10;;
13443;SDS011;6794;59.218;18.218;2023-02-05T11:52:24;1.37;;;1.00;;
13443;SDS011;6794;59.218;18.218;2023-02-05T11:54:51;1.53;;;1.13;;
13443;SDS011;6794;59.218;18.218;2023-02-05T12:04:47;1.73;;;0.90;;
13443;SDS011;6794;59.218;18.218;2023-02-05T12:07:13;1.93;;;1.10;;
13443;SDS011;6794;59.218;18.218;2023-02-05T12:09:42;1.20;;;0.90;;
13443;SDS011;6794;59.218;18.218;2023-02-05T12:15:06;1.13;;;1.00;;
13443;SDS011;6794;59.218;18.218;2023-02-05T12:22:45;1.47;;;1.03;;
13443;SDS011;6794;59.218;18.218;2023-02-05T12:25:25;2.07;;;1.10;;
13443;SDS011;6794;59.218;18.218;2023-02-05T12:37:46;1.73;;;1.17;;
13443;SDS011;6794;59.218;18.218;2023-02-05T12:45:47;5.97;;;1.20;;
13443;SDS011;6794;59.218;18.218;2023-02-05T12:48:41;1.93;;;1.13;;
13443;SDS011;6794;59.218;18.218;2023-02-05T12:53:55;1.43;;;1.03;;
13443;SDS011;6794;59.218;18.218;2023-02-05T12:56:30;1.10;;;1.00;;
13443;SDS011;6794;59.218;18.218;2023-02-05T12:58:59;2.83;;;1.48;;
13443;SDS011;6794;59.218;18.218;2023-02-05T13:01:46;1.53;;;1.13;;
13443;SDS011;6794;59.218;18.218;2023-02-05T13:04:35;2.65;;;1.38;;
13443;SDS011;6794;59.218;18.218;2023-02-05T13:07:11;1.20;;;1.10;;
13443;SDS011;6794;59.218;18.218;2023-02-05T13:12:07;1.50;;;1.30;;
13443;SDS011;6794;59.218;18.218;2023-02-05T13:14:42;1.43;;;1.20;;
13443;SDS011;6794;59.218;18.218;2023-02-05T13:19:45;2.07;;;1.23;;
13443;SDS011;6794;59.218;18.218;2023-02-05T13:24:59;1.90;;;1.23;;
13443;SDS011;6794;59.218;18.218;2023-02-05T13:27:49;1.50;;;1.37;;
13443;SDS011;6794;59.218;18.218;2023-02-05T13:30:44;4.07;;;1.50;;
13443;SDS011;6794;59.218;18.218;2023-02-05T13:33:12;1.77;;;1.60;;
13443;SDS011;6794;59.218;18.218;2023-02-05T13:58:43;3.83;;;1.27;;
13443;SDS011;6794;59.218;18.218;2023-02-05T14:01:13;1.70;;;1.17;;
13443;SDS011;6794;59.218;18.218;2023-02-05T14:03:43;2.17;;;1.50;;
13443;SDS011;6794;59.218;18.218;2023-02-05T14:08:45;4.63;;;1.60;;
13443;SDS011;6794;59.218;18.218;2023-02-05T14:11:12;2.03;;;1.10;;
13443;SDS011;6794;59.218;18.218;2023-02-05T14:13:38;3.10;;;1.30;;
13443;SDS011;6794;59.218;18.218;2023-02-05T14:19:22;2.37;;;1.40;;
13443;SDS011;6794;59.218;18.218;2023-02-05T14:26:55;1.57;;;1.23;;
13443;SDS011;6794;59.218;18.218;2023-02-05T14:29:41;2.60;;;1.50;;
13443;SDS011;6794;59.218;18.218;2023-02-05T14:34:58;2.00;;;1.30;;
13443;SDS011;6794;59.218;18.218;2023-02-05T14:37:35;2.10;;;1.40;;
13443;SDS011;6794;59.218;18.218;2023-02-05T14:40:24;3.33;;;1.50;;
13443;SDS011;6794;59.218;18.218;2023-02-05T14:42:49;1.83;;;1.30;;
13443;SDS011;6794;59.218;18.218;2023-02-05T14:45:17;3.73;;;1.80;;
13443;SDS011;6794;59.218;18.218;2023-02-05T14:47:46;1.77;;;1.23;;
13443;SDS011;6794;59.218;18.218;2023-02-05T14:50:19;2.03;;;1.20;;
13443;SDS011;6794;59.218;18.218;2023-02-05T14:52:48;3.23;;;1.50;;
13443;SDS011;6794;59.218;18.218;2023-02-05T14:57:44;2.03;;;1.57;;
13443;SDS011;6794;59.218;18.218;2023-02-05T15:00:28;2.63;;;1.43;;
13443;SDS011;6794;59.218;18.218;2023-02-05T15:05:47;1.97;;;1.40;;
13443;SDS011;6794;59.218;18.218;2023-02-05T15:13:28;4.17;;;3.07;;
13443;SDS011;6794;59.218;18.218;2023-02-05T15:16:07;3.00;;;2.40;;
13443;SDS011;6794;59.218;18.218;2023-02-05T15:18:50;4.10;;;1.50;;
13443;SDS011;6794;59.218;18.218;2023-02-05T15:21:22;3.15;;;1.90;;
13443;SDS011;6794;59.218;18.218;2023-02-05T15:23:59;3.67;;;1.97;;
13443;SDS011;6794;59.218;18.218;2023-02-05T15:26:28;3.80;;;2.00;;
13443;SDS011;6794;59.218;18.218;2023-02-05T15:29:13;4.60;;;2.40;;
13443;SDS011;6794;59.218;18.218;2023-02-05T15:31:48;2.00;;;1.70;;
13443;SDS011;6794;59.218;18.218;2023-02-05T15:36:53;3.37;;;2.10;;
13443;SDS011;6794;59.218;18.218;2023-02-05T15:39:25;2.00;;;1.77;;
13443;SDS011;6794;59.218;18.218;2023-02-05T15:41:54;2.43;;;1.67;;
13443;SDS011;6794;59.218;18.218;2023-02-05T15:44:21;3.33;;;1.77;;
13443;SDS011;6794;59.218;18.218;2023-02-05T15:46:48;8.03;;;2.03;;
13443;SDS011;6794;59.218;18.218;2023-02-05T15:49:14;3.00;;;1.50;;
13443;SDS011;6794;59.218;18.218;2023-02-05T15:51:40;3.43;;;1.87;;
13443;SDS011;6794;59.218;18.218;2023-02-05T15:54:06;2.43;;;1.60;;
13443;SDS011;6794;59.218;18.218;2023-02-05T15:56:33;2.30;;;1.60;;
13443;SDS011;6794;59.218;18.218;2023-02-05T15:59:02;3.70;;;2.13;;
13443;SDS011;6794;59.218;18.218;2023-02-05T16:03:55;2.10;;;1.90;;
13443;SDS011;6794;59.218;18.218;2023-02-05T16:06:22;2.67;;;1.80;;
13443;SDS011;6794;59.218;18.218;2023-02-05T16:08:49;2.77;;;1.87;;
13443;SDS011;6794;59.218;18.218;2023-02-05T16:11:32;2.83;;;2.40;;
13443;SDS011;6794;59.218;18.218;2023-02-05T16:14:32;5.00;;;3.00;;
13443;SDS011;6794;59.218;18.218;2023-02-05T16:22:13;8.30;;;3.00;;
13443;SDS011;6794;59.218;18.218;2023-02-05T16:24:42;3.57;;;2.00;;
13443;SDS011;6794;59.218;18.218;2023-02-05T16:27:13;4.70;;;2.10;;
13443;SDS011;6794;59.218;18.218;2023-02-05T16:29:45;3.30;;;1.90;;
13443;SDS011;6794;59.218;18.218;2023-02-05T16:32:35;3.03;;;1.83;;
13443;SDS011;6794;59.218;18.218;2023-02-05T16:34:59;3.33;;;1.90;;
13443;SDS011;6794;59.218;18.218;2023-02-05T16:37:27;3.07;;;2.00;;
13443;SDS011;6794;59.218;18.218;2023-02-05T16:39:54;3.40;;;2.00;;
13443;SDS011;6794;59.218;18.218;2023-02-05T16:45:04;4.00;;;2.40;;
13443;SDS011;6794;59.218;18.218;2023-02-05T16:47:30;4.57;;;2.20;;
13443;SDS011;6794;59.218;18.218;2023-02-05T16:49:56;4.90;;;2.17;;
13443;SDS011;6794;59.218;18.218;2023-02-05T16:54:55;4.90;;;2.67;;
13443;SDS011;6794;59.218;18.218;2023-02-05T16:57:26;2.40;;;2.07;;
13443;SDS011;6794;59.218;18.218;2023-02-05T16:59:54;4.87;;;2.87;;
13443;SDS011;6794;59.218;18.218;2023-02-05T17:02:26;5.13;;;2.30;;
13443;SDS011;6794;59.218;18.218;2023-02-05T17:04:53;4.43;;;2.83;;
13443;SDS011;6794;59.218;18.218;2023-02-05T17:07:20;5.30;;;2.33;;
13443;SDS011;6794;59.218;18.218;2023-02-05T17:09:47;4.23;;;2.60;;
13443;SDS011;6794;59.218;18.218;2023-02-05T17:12:24;5.27;;;2.60;;
13443;SDS011;6794;59.218;18.218;2023-02-05T17:14:54;4.73;;;2.70;;
13443;SDS011;6794;59.218;18.218;2023-02-05T17:17:20;4.00;;;2.93;;
13443;SDS011;6794;59.218;18.218;2023-02-05T17:20:04;4.37;;;2.60;;
13443;SDS011;6794;59.218;18.218;2023-02-05T17:22:30;3.10;;;2.37;;
13443;SDS011;6794;59.218;18.218;2023-02-05T17:24:58;6.67;;;2.63;;
13443;SDS011;6794;59.218;18.218;2023-02-05T17:27:28;5.37;;;2.57;;
13443;SDS011;6794;59.218;18.218;2023-02-05T17:29:55;3.37;;;2.10;;
13443;SDS011;6794;59.218;18.218;2023-02-05T17:32:22;4.13;;;2.33;;
13443;SDS011;6794;59.218;18.218;2023-02-05T17:34:48;4.77;;;2.90;;
13443;SDS011;6794;59.218;18.218;2023-02-05T17:37:14;5.20;;;2.60;;